Colstrip, Montana
Current Conditions -  °F | °C
As of 8:53 PM on Tuesday 21 Oct 2014 (Local Time) from KMLS Reporting Station
Light Rain Light Rain  
Wind Chill: 64°   Ceiling: 10000
Heat Index: 64°   Visibility: 10mi
Dew Point: 43°   Wind: 10mph
Humidity: 46%   Direction: 240°WSW
Pressure: 29.71"   Gusts: NA
Location:  45.88°N, 106.62°W
Report Text: KMLS 220253Z AUTO 24009KT 10SM -RA FEW055 SCT080 OVC100 18/06 A2971 RMK AO2 RAE06B24E34B51 SLP057 P0000 60000 T01780061 53028
Loading
Personal Weather Stations






























Interactive Weather Map
Tropical Storm Tracking
New forecast layout! Learn more

10-Day Weather Forecast

Advertisements
Track Severe Weather on mobile